sensor_id;sensor_type;location;lat;lon;timestamp;pressure;altitude;pressure_sealevel;temperature;humidity
32330;BME280;18807;52.434;13.238;2022-11-20T00:03:24;100789.25;;;0.73;100.00
32330;BME280;18807;52.434;13.238;2022-11-20T00:11:04;100795.44;;;0.74;100.00
32330;BME280;18807;52.434;13.238;2022-11-20T00:18:43;100793.38;;;0.68;100.00
32330;BME280;18807;52.434;13.238;2022-11-20T00:26:24;100789.50;;;0.62;100.00
32330;BME280;18807;52.434;13.238;2022-11-20T00:33:59;100782.53;;;0.62;100.00
32330;BME280;18807;52.434;13.238;2022-11-20T00:41:34;100789.75;;;0.66;100.00
32330;BME280;18807;52.434;13.238;2022-11-20T00:49:08;100791.38;;;0.64;100.00
32330;BME280;18807;52.434;13.238;2022-11-20T00:56:44;100791.56;;;0.67;100.00
32330;BME280;18807;52.434;13.238;2022-11-20T01:04:18;100793.38;;;0.68;100.00
32330;BME280;18807;52.434;13.238;2022-11-20T01:11:53;100792.22;;;0.63;100.00
32330;BME280;18807;52.434;13.238;2022-11-20T01:19:28;100791.13;;;0.60;100.00
32330;BME280;18807;52.434;13.238;2022-11-20T01:27:03;100780.53;;;0.58;100.00
32330;BME280;18807;52.434;13.238;2022-11-20T01:34:37;100785.78;;;0.58;100.00
32330;BME280;18807;52.434;13.238;2022-11-20T01:42:13;100777.13;;;0.59;100.00
32330;BME280;18807;52.434;13.238;2022-11-20T01:50:08;100772.56;;;0.57;100.00
32330;BME280;18807;52.434;13.238;2022-11-20T01:57:47;100768.91;;;0.53;100.00
32330;BME280;18807;52.434;13.238;2022-11-20T02:05:27;100770.19;;;0.45;100.00
32330;BME280;18807;52.434;13.238;2022-11-20T02:13:04;100765.78;;;0.44;100.00
32330;BME280;18807;52.434;13.238;2022-11-20T02:20:59;100758.59;;;0.42;100.00
32330;BME280;18807;52.434;13.238;2022-11-20T02:28:38;100752.38;;;0.40;100.00
32330;BME280;18807;52.434;13.238;2022-11-20T02:36:15;100752.31;;;0.38;100.00
32330;BME280;18807;52.434;13.238;2022-11-20T02:43:51;100745.16;;;0.36;100.00
32330;BME280;18807;52.434;13.238;2022-11-20T02:51:25;100745.97;;;0.35;100.00
32330;BME280;18807;52.434;13.238;2022-11-20T02:59:00;100742.22;;;0.30;100.00
32330;BME280;18807;52.434;13.238;2022-11-20T03:06:34;100737.50;;;0.24;100.00
32330;BME280;18807;52.434;13.238;2022-11-20T03:14:09;100739.72;;;0.17;100.00
32330;BME280;18807;52.434;13.238;2022-11-20T03:21:43;100731.81;;;0.17;100.00
32330;BME280;18807;52.434;13.238;2022-11-20T03:29:18;100727.41;;;0.16;100.00
32330;BME280;18807;52.434;13.238;2022-11-20T03:36:53;100710.66;;;0.14;100.00
32330;BME280;18807;52.434;13.238;2022-11-20T03:44:28;100717.66;;;0.13;100.00
32330;BME280;18807;52.434;13.238;2022-11-20T03:52:03;100715.66;;;0.09;100.00
32330;BME280;18807;52.434;13.238;2022-11-20T03:59:38;100716.31;;;0.05;100.00
32330;BME280;18807;52.434;13.238;2022-11-20T04:07:11;100717.47;;;0.10;100.00
32330;BME280;18807;52.434;13.238;2022-11-20T04:14:47;100717.72;;;0.15;100.00
32330;BME280;18807;52.434;13.238;2022-11-20T04:22:21;100712.72;;;0.19;100.00
32330;BME280;18807;52.434;13.238;2022-11-20T04:29:56;100712.91;;;0.22;100.00
32330;BME280;18807;52.434;13.238;2022-11-20T04:37:30;100714.44;;;0.19;100.00
32330;BME280;18807;52.434;13.238;2022-11-20T04:45:06;100720.03;;;0.25;100.00
32330;BME280;18807;52.434;13.238;2022-11-20T04:52:40;100712.31;;;0.28;100.00
32330;BME280;18807;52.434;13.238;2022-11-20T05:00:16;100700.09;;;0.28;100.00
32330;BME280;18807;52.434;13.238;2022-11-20T05:07:51;100695.81;;;0.30;100.00
32330;BME280;18807;52.434;13.238;2022-11-20T05:15:26;100680.06;;;0.30;100.00
32330;BME280;18807;52.434;13.238;2022-11-20T05:23:00;100674.09;;;0.33;100.00
32330;BME280;18807;52.434;13.238;2022-11-20T05:30:36;100686.56;;;0.37;100.00
32330;BME280;18807;52.434;13.238;2022-11-20T05:38:10;100680.31;;;0.35;100.00
32330;BME280;18807;52.434;13.238;2022-11-20T05:45:52;100675.88;;;0.34;100.00
32330;BME280;18807;52.434;13.238;2022-11-20T05:53:27;100662.09;;;0.38;100.00
32330;BME280;18807;52.434;13.238;2022-11-20T06:01:07;100668.94;;;0.34;100.00
32330;BME280;18807;52.434;13.238;2022-11-20T06:08:41;100669.13;;;0.39;100.00
32330;BME280;18807;52.434;13.238;2022-11-20T06:16:17;100664.63;;;0.36;100.00
32330;BME280;18807;52.434;13.238;2022-11-20T06:23:52;100655.91;;;0.37;100.00
32330;BME280;18807;52.434;13.238;2022-11-20T06:31:28;100664.78;;;0.39;100.00
32330;BME280;18807;52.434;13.238;2022-11-20T06:39:05;100669.06;;;0.37;100.00
32330;BME280;18807;52.434;13.238;2022-11-20T06:46:40;100658.63;;;0.39;100.00
32330;BME280;18807;52.434;13.238;2022-11-20T06:54:14;100653.25;;;0.36;100.00
32330;BME280;18807;52.434;13.238;2022-11-20T07:01:49;100653.81;;;0.30;100.00
32330;BME280;18807;52.434;13.238;2022-11-20T07:09:23;100659.72;;;0.26;100.00
32330;BME280;18807;52.434;13.238;2022-11-20T07:16:59;100657.19;;;0.28;100.00
32330;BME280;18807;52.434;13.238;2022-11-20T07:24:33;100649.88;;;0.22;100.00
32330;BME280;18807;52.434;13.238;2022-11-20T07:32:14;100652.00;;;0.13;100.00
32330;BME280;18807;52.434;13.238;2022-11-20T07:39:48;100648.22;;;0.08;100.00
32330;BME280;18807;52.434;13.238;2022-11-20T07:47:23;100651.94;;;0.12;100.00
32330;BME280;18807;52.434;13.238;2022-11-20T07:54:57;100654.72;;;0.15;100.00
32330;BME280;18807;52.434;13.238;2022-11-20T08:02:32;100650.53;;;0.18;100.00
32330;BME280;18807;52.434;13.238;2022-11-20T08:10:08;100645.59;;;0.24;100.00
32330;BME280;18807;52.434;13.238;2022-11-20T08:17:43;100642.34;;;0.28;100.00
32330;BME280;18807;52.434;13.238;2022-11-20T08:25:38;100642.97;;;0.24;100.00
32330;BME280;18807;52.434;13.238;2022-11-20T08:33:14;100637.41;;;0.34;100.00
32330;BME280;18807;52.434;13.238;2022-11-20T08:40:49;100631.16;;;0.32;100.00
32330;BME280;18807;52.434;13.238;2022-11-20T08:48:39;100624.75;;;0.27;100.00
32330;BME280;18807;52.434;13.238;2022-11-20T08:56:13;100628.97;;;0.24;100.00
32330;BME280;18807;52.434;13.238;2022-11-20T09:03:48;100635.75;;;0.20;100.00
32330;BME280;18807;52.434;13.238;2022-11-20T09:11:22;100625.91;;;0.32;100.00
32330;BME280;18807;52.434;13.238;2022-11-20T09:18:57;100633.78;;;0.32;100.00
32330;BME280;18807;52.434;13.238;2022-11-20T09:26:51;100639.03;;;0.32;100.00
32330;BME280;18807;52.434;13.238;2022-11-20T09:34:27;100640.16;;;0.37;100.00
32330;BME280;18807;52.434;13.238;2022-11-20T09:50:14;100619.47;;;0.43;100.00
32330;BME280;18807;52.434;13.238;2022-11-20T09:57:51;100620.47;;;0.45;100.00
32330;BME280;18807;52.434;13.238;2022-11-20T10:05:30;100616.44;;;0.52;100.00
32330;BME280;18807;52.434;13.238;2022-11-20T10:13:17;100607.91;;;0.56;100.00
32330;BME280;18807;52.434;13.238;2022-11-20T10:21:02;100611.00;;;0.65;100.00
32330;BME280;18807;52.434;13.238;2022-11-20T10:28:46;100606.41;;;0.61;100.00
32330;BME280;18807;52.434;13.238;2022-11-20T10:36:35;100591.28;;;0.73;100.00
32330;BME280;18807;52.434;13.238;2022-11-20T10:44:15;100581.28;;;0.83;100.00
32330;BME280;18807;52.434;13.238;2022-11-20T10:52:17;100572.59;;;0.84;100.00
32330;BME280;18807;52.434;13.238;2022-11-20T11:00:05;100569.72;;;0.80;100.00
32330;BME280;18807;52.434;13.238;2022-11-20T11:07:41;100569.28;;;0.88;100.00
32330;BME280;18807;52.434;13.238;2022-11-20T11:15:26;100566.88;;;1.10;100.00
32330;BME280;18807;52.434;13.238;2022-11-20T11:23:02;100557.59;;;1.36;100.00
32330;BME280;18807;52.434;13.238;2022-11-20T11:30:46;100561.16;;;1.36;100.00
32330;BME280;18807;52.434;13.238;2022-11-20T11:38:29;100551.94;;;1.46;100.00
32330;BME280;18807;52.434;13.238;2022-11-20T11:53:44;100542.22;;;1.62;100.00
32330;BME280;18807;52.434;13.238;2022-11-20T12:01:26;100529.47;;;1.71;100.00
32330;BME280;18807;52.434;13.238;2022-11-20T12:09:05;100541.28;;;1.79;100.00
32330;BME280;18807;52.434;13.238;2022-11-20T12:16:41;100527.97;;;1.76;100.00
32330;BME280;18807;52.434;13.238;2022-11-20T12:24:38;100527.00;;;1.74;100.00
32330;BME280;18807;52.434;13.238;2022-11-20T12:32:32;100515.53;;;1.74;100.00
32330;BME280;18807;52.434;13.238;2022-11-20T12:40:24;100510.13;;;1.71;100.00
32330;BME280;18807;52.434;13.238;2022-11-20T12:48:23;100505.56;;;1.67;100.00
32330;BME280;18807;52.434;13.238;2022-11-20T12:56:10;100513.34;;;1.64;100.00
32330;BME280;18807;52.434;13.238;2022-11-20T13:03:51;100505.09;;;1.56;100.00
32330;BME280;18807;52.434;13.238;2022-11-20T13:11:34;100498.19;;;1.58;100.00
32330;BME280;18807;52.434;13.238;2022-11-20T13:19:12;100490.88;;;1.53;100.00
32330;BME280;18807;52.434;13.238;2022-11-20T13:26:47;100478.22;;;1.44;100.00
32330;BME280;18807;52.434;13.238;2022-11-20T13:34:24;100473.50;;;1.37;100.00
32330;BME280;18807;52.434;13.238;2022-11-20T13:42:01;100477.78;;;1.35;100.00
32330;BME280;18807;52.434;13.238;2022-11-20T13:49:38;100461.94;;;1.34;100.00
32330;BME280;18807;52.434;13.238;2022-11-20T13:57:38;100478.75;;;1.37;100.00
32330;BME280;18807;52.434;13.238;2022-11-20T14:05:19;100475.50;;;1.43;100.00
32330;BME280;18807;52.434;13.238;2022-11-20T14:12:56;100476.41;;;1.43;100.00
32330;BME280;18807;52.434;13.238;2022-11-20T14:20:30;100466.91;;;1.47;100.00
32330;BME280;18807;52.434;13.238;2022-11-20T14:28:10;100467.41;;;1.38;100.00
32330;BME280;18807;52.434;13.238;2022-11-20T14:35:46;100475.50;;;1.43;100.00
32330;BME280;18807;52.434;13.238;2022-11-20T14:43:24;100482.44;;;1.41;100.00
32330;BME280;18807;52.434;13.238;2022-11-20T14:50:58;100468.38;;;1.40;100.00
32330;BME280;18807;52.434;13.238;2022-11-20T14:58:34;100475.28;;;1.38;100.00
32330;BME280;18807;52.434;13.238;2022-11-20T15:06:11;100477.91;;;1.38;100.00
32330;BME280;18807;52.434;13.238;2022-11-20T15:13:46;100477.91;;;1.38;100.00
32330;BME280;18807;52.434;13.238;2022-11-20T15:21:20;100469.59;;;1.29;100.00
32330;BME280;18807;52.434;13.238;2022-11-20T15:28:56;100466.84;;;1.26;100.00
32330;BME280;18807;52.434;13.238;2022-11-20T15:36:31;100460.69;;;1.26;100.00
32330;BME280;18807;52.434;13.238;2022-11-20T15:44:06;100460.97;;;1.32;100.00
32330;BME280;18807;52.434;13.238;2022-11-20T15:51:42;100452.25;;;1.33;100.00
32330;BME280;18807;52.434;13.238;2022-11-20T15:59:18;100445.06;;;1.29;100.00
32330;BME280;18807;52.434;13.238;2022-11-20T16:06:51;100440.31;;;1.22;100.00
32330;BME280;18807;52.434;13.238;2022-11-20T16:14:27;100438.66;;;1.24;100.00
32330;BME280;18807;52.434;13.238;2022-11-20T16:22:18;100433.19;;;1.19;100.00
32330;BME280;18807;52.434;13.238;2022-11-20T16:29:54;100438.44;;;1.19;100.00
32330;BME280;18807;52.434;13.238;2022-11-20T16:37:29;100441.63;;;1.12;100.00
32330;BME280;18807;52.434;13.238;2022-11-20T16:45:05;100434.56;;;1.11;100.00
32330;BME280;18807;52.434;13.238;2022-11-20T16:52:39;100441.13;;;1.02;100.00
32330;BME280;18807;52.434;13.238;2022-11-20T17:00:15;100435.72;;;0.99;100.00
32330;BME280;18807;52.434;13.238;2022-11-20T17:07:49;100437.31;;;0.95;100.00
32330;BME280;18807;52.434;13.238;2022-11-20T17:15:25;100433.34;;;0.86;100.00
32330;BME280;18807;52.434;13.238;2022-11-20T17:22:59;100433.13;;;0.81;100.00
32330;BME280;18807;52.434;13.238;2022-11-20T17:30:34;100432.69;;;0.72;100.00
32330;BME280;18807;52.434;13.238;2022-11-20T17:38:08;100432.41;;;0.66;100.00
32330;BME280;18807;52.434;13.238;2022-11-20T17:45:44;100432.25;;;0.63;100.00
32330;BME280;18807;52.434;13.238;2022-11-20T17:53:18;100431.41;;;0.64;100.00
32330;BME280;18807;52.434;13.238;2022-11-20T18:00:54;100428.50;;;0.58;100.00
32330;BME280;18807;52.434;13.238;2022-11-20T18:08:28;100419.50;;;0.53;100.00
32330;BME280;18807;52.434;13.238;2022-11-20T18:16:06;100407.78;;;0.47;100.00
32330;BME280;18807;52.434;13.238;2022-11-20T18:23:40;100401.31;;;0.40;100.00
32330;BME280;18807;52.434;13.238;2022-11-20T18:31:16;100400.06;;;0.32;100.00
32330;BME280;18807;52.434;13.238;2022-11-20T18:38:52;100403.31;;;0.27;100.00
32330;BME280;18807;52.434;13.238;2022-11-20T18:46:31;100395.03;;;0.19;100.00
32330;BME280;18807;52.434;13.238;2022-11-20T18:54:05;100387.00;;;0.16;100.00
32330;BME280;18807;52.434;13.238;2022-11-20T19:01:41;100381.47;;;0.10;100.00
32330;BME280;18807;52.434;13.238;2022-11-20T19:09:15;100401.47;;;0.08;100.00
32330;BME280;18807;52.434;13.238;2022-11-20T19:16:50;100397.69;;;0.03;100.00
32330;BME280;18807;52.434;13.238;2022-11-20T19:24:25;100396.34;;;-0.07;100.00
32330;BME280;18807;52.434;13.238;2022-11-20T19:32:01;100406.63;;;-0.11;100.00
32330;BME280;18807;52.434;13.238;2022-11-20T19:39:36;100391.72;;;-0.12;100.00
32330;BME280;18807;52.434;13.238;2022-11-20T19:47:11;100387.19;;;-0.15;100.00
32330;BME280;18807;52.434;13.238;2022-11-20T19:54:46;100395.75;;;-0.19;100.00
32330;BME280;18807;52.434;13.238;2022-11-20T20:02:21;100381.63;;;-0.21;100.00
32330;BME280;18807;52.434;13.238;2022-11-20T20:09:55;100384.25;;;-0.21;100.00
32330;BME280;18807;52.434;13.238;2022-11-20T20:17:31;100380.44;;;-0.27;100.00
32330;BME280;18807;52.434;13.238;2022-11-20T20:25:05;100373.22;;;-0.31;100.00
32330;BME280;18807;52.434;13.238;2022-11-20T20:32:40;100343.41;;;-0.33;100.00
32330;BME280;18807;52.434;13.238;2022-11-20T20:40:14;100345.72;;;-0.39;100.00
32330;BME280;18807;52.434;13.238;2022-11-20T20:47:51;100339.22;;;-0.46;100.00
32330;BME280;18807;52.434;13.238;2022-11-20T20:55:27;100339.75;;;-0.53;100.00
32330;BME280;18807;52.434;13.238;2022-11-20T21:03:02;100347.06;;;-0.63;100.00
32330;BME280;18807;52.434;13.238;2022-11-20T21:10:36;100339.78;;;-0.69;100.00
32330;BME280;18807;52.434;13.238;2022-11-20T21:18:11;100325.44;;;-0.75;100.00
32330;BME280;18807;52.434;13.238;2022-11-20T21:25:45;100315.47;;;-0.82;100.00
32330;BME280;18807;52.434;13.238;2022-11-20T21:33:20;100308.13;;;-0.89;100.00
32330;BME280;18807;52.434;13.238;2022-11-20T21:40:55;100309.50;;;-0.96;100.00
32330;BME280;18807;52.434;13.238;2022-11-20T21:48:32;100302.16;;;-1.03;100.00
32330;BME280;18807;52.434;13.238;2022-11-20T21:56:07;100289.63;;;-1.08;100.00
32330;BME280;18807;52.434;13.238;2022-11-20T22:03:46;100275.31;;;-1.15;100.00
32330;BME280;18807;52.434;13.238;2022-11-20T22:11:22;100274.16;;;-1.20;100.00
32330;BME280;18807;52.434;13.238;2022-11-20T22:18:57;100263.59;;;-1.21;100.00
32330;BME280;18807;52.434;13.238;2022-11-20T22:26:33;100261.81;;;-1.22;100.00
32330;BME280;18807;52.434;13.238;2022-11-20T22:34:13;100247.56;;;-1.27;100.00
32330;BME280;18807;52.434;13.238;2022-11-20T22:41:47;100241.19;;;-1.32;100.00
32330;BME280;18807;52.434;13.238;2022-11-20T22:49:22;100229.00;;;-1.32;100.00
32330;BME280;18807;52.434;13.238;2022-11-20T22:56:56;100218.66;;;-1.29;100.00
32330;BME280;18807;52.434;13.238;2022-11-20T23:04:32;100213.50;;;-1.27;100.00
32330;BME280;18807;52.434;13.238;2022-11-20T23:12:06;100213.03;;;-1.20;100.00
32330;BME280;18807;52.434;13.238;2022-11-20T23:19:42;100210.66;;;-1.16;100.00
32330;BME280;18807;52.434;13.238;2022-11-20T23:27:16;100190.91;;;-1.09;100.00
32330;BME280;18807;52.434;13.238;2022-11-20T23:34:52;100186.13;;;-1.00;100.00
32330;BME280;18807;52.434;13.238;2022-11-20T23:42:26;100182.97;;;-0.93;100.00
32330;BME280;18807;52.434;13.238;2022-11-20T23:50:02;100177.81;;;-0.92;100.00
32330;BME280;18807;52.434;13.238;2022-11-20T23:57:36;100161.72;;;-0.99;100.00
